»·PEaware :: SQH318 U42-KRKS

SQH318 :: U42-KRKS

FLIGHT INFORMATION

Flight Status: Arrived
Operator: Unknown
More flights by this operator :: More flights under this callsign
Pilot: Chris B. (15698)
Aircraft: PIAGGIO P-180 AVANTI
(P180)
More flights by this aircraft type
Origin: U42 Salt Lake City Mun No 2
United States
Destination: KRKS Rock Springs-Sweetwater
United States
More flights between these airports :: More routes between these airports
Route: TCH V32 FBR V142 PUDVY
File this flight plan on PilotEdge
Remarks:
Altitude:
(Current/Filed)
13,000ft
Speed:
(Current/Filed)
320kts
Departed: 14-Jan-18 10:10 PM
Arrived: 14-Jan-18 10:51 PM
Distance/Time
Traveled:
144nm/0:41
Distance/Time
To Go:
Arrived

Flight Plot

Page will automatically refresh every two minutes.

Flight plan parsing failed; only flown route is shown


Map Options




Map Legend


Flown Route
Filed Route
Departure Airport
Arrival Airport
Navaid (VOR, NDB)
Fix

Horizontal Profiles

Position Reports

Time Latitude Longitude Heading Altitude Ground
Speed
14-Jan-18 22:03 40.617246 -111.995972 83 4611ft 0kts
14-Jan-18 22:04 40.617246 -111.995972 83 4611ft 0kts
14-Jan-18 22:05 40.617246 -111.995972 83 4611ft 0kts
14-Jan-18 22:06 40.617246 -111.995972 83 4611ft 0kts
14-Jan-18 22:07 40.617246 -111.995972 83 4611ft 0kts
14-Jan-18 22:08 40.617246 -111.995972 83 4611ft 0kts
14-Jan-18 22:09 40.617246 -111.995972 83 4611ft 0kts
14-Jan-18 22:10 40.617246 -111.995972 83 4611ft 0kts
14-Jan-18 22:11 40.617246 -111.995972 83 4611ft 0kts
14-Jan-18 22:12 40.621782 -111.995994 352 4611ft 37kts
14-Jan-18 22:13 40.626951 -111.995018 45 4611ft 0kts
14-Jan-18 22:14 40.626951 -111.995018 45 4611ft 0kts
14-Jan-18 22:15 40.627253 -111.994330 113 4611ft 13kts
14-Jan-18 22:16 40.601737 -111.988086 154 5661ft 147kts
14-Jan-18 22:17 40.626899 -111.973713 355 7643ft 171kts
14-Jan-18 22:18 40.678962 -111.977365 355 9691ft 200kts
14-Jan-18 22:19 40.733988 -111.982122 354 12391ft 207kts
14-Jan-18 22:20 40.799002 -111.988759 354 13002ft 288kts
14-Jan-18 22:21 40.884837 -111.991908 18 12982ft 328kts
14-Jan-18 22:22 40.914695 -111.892917 93 12991ft 333kts
14-Jan-18 22:23 40.922462 -111.782852 68 12987ft 316kts
14-Jan-18 22:24 40.955835 -111.677909 63 12981ft 307kts
14-Jan-18 22:25 40.990324 -111.577222 62 12980ft 303kts
14-Jan-18 22:26 41.024692 -111.477019 62 12980ft 300kts
14-Jan-18 22:27 41.056595 -111.383709 62 12980ft 299kts
14-Jan-18 22:28 41.088093 -111.291273 63 12979ft 298kts
14-Jan-18 22:29 41.119644 -111.198283 62 12982ft 298kts
14-Jan-18 22:30 41.152444 -111.101368 62 12982ft 299kts
14-Jan-18 22:31 41.185628 -111.002933 62 12982ft 299kts
14-Jan-18 22:32 41.218278 -110.905738 62 12982ft 299kts
14-Jan-18 22:33 41.251173 -110.807468 63 12982ft 299kts
14-Jan-18 22:34 41.284333 -110.707945 62 12983ft 299kts
14-Jan-18 22:35 41.317356 -110.608678 62 12983ft 298kts
14-Jan-18 22:36 41.350407 -110.508883 62 12983ft 298kts
14-Jan-18 22:37 41.379835 -110.408375 72 12977ft 301kts
14-Jan-18 22:38 41.397397 -110.302106 75 12981ft 302kts
14-Jan-18 22:39 41.411361 -110.212577 74 12981ft 302kts
14-Jan-18 22:40 41.430881 -110.086224 74 13050ft 300kts
14-Jan-18 22:41 41.444692 -109.996182 74 13055ft 301kts
14-Jan-18 22:42 41.462789 -109.877297 74 13053ft 268kts
14-Jan-18 22:43 41.477314 -109.781477 74 13055ft 268kts
14-Jan-18 22:44 41.489415 -109.700982 73 12989ft 271kts
14-Jan-18 22:45 41.503968 -109.603888 73 12982ft 270kts
14-Jan-18 22:46 41.519048 -109.502817 74 11978ft 294kts
14-Jan-18 22:47 41.534221 -109.400058 75 10638ft 291kts
14-Jan-18 22:48 41.550464 -109.301143 73 9891ft 260kts
14-Jan-18 22:49 41.566072 -109.216958 73 8462ft 218kts
14-Jan-18 22:50 41.577898 -109.153212 72 8230ft 166kts
14-Jan-18 22:51 41.575800 -109.086917 99 8184ft 192kts
14-Jan-18 22:52 41.566775 -109.019418 99 8174ft 167kts
14-Jan-18 22:53 41.579443 -108.977661 345 7967ft 133kts
14-Jan-18 22:54 41.587324 -109.017055 270 7394ft 120kts
14-Jan-18 22:55 41.592991 -109.056359 281 6764ft 63kts
14-Jan-18 22:56 41.595342 -109.068739 279 6764ft 44kts
14-Jan-18 22:57 41.597187 -109.072466 12 6764ft 12kts
14-Jan-18 22:58 41.598138 -109.072218 15 6764ft 0kts
14-Jan-18 22:59 41.598138 -109.072218 15 6764ft 0kts

Navigation Log

Ident Type
Flight plan parsing failed, navigation log unavailable